createdAt,value
2018-08-09T00:01:44.307Z,8.33
2018-08-09T00:04:13.000Z,7.47
2018-08-09T00:06:41.624Z,7.30
2018-08-09T00:09:10.707Z,6.37
2018-08-09T00:11:40.002Z,8.03
2018-08-09T00:14:08.609Z,6.33
2018-08-09T00:16:37.397Z,9.13
2018-08-09T00:19:06.438Z,8.60
2018-08-09T00:21:35.781Z,6.43
2018-08-09T00:24:05.037Z,6.67
2018-08-09T00:26:33.701Z,9.07
2018-08-09T00:29:02.461Z,7.90
2018-08-09T00:31:31.096Z,6.23
2018-08-09T00:34:00.338Z,6.97
2018-08-09T00:36:29.196Z,8.17
2018-08-09T00:38:58.280Z,6.77
2018-08-09T00:41:26.945Z,7.33
2018-08-09T00:43:55.718Z,11.67
2018-08-09T00:46:24.335Z,9.43
2018-08-09T00:48:52.989Z,7.27
2018-08-09T00:51:21.956Z,10.33
2018-08-09T00:53:50.748Z,7.63
2018-08-09T00:56:19.315Z,9.83
2018-08-09T00:58:48.143Z,7.13
2018-08-09T01:01:16.760Z,8.57
2018-08-09T01:03:45.435Z,7.63
2018-08-09T01:06:14.548Z,7.23
2018-08-09T01:08:47.621Z,8.03
2018-08-09T01:11:16.405Z,6.00
2018-08-09T01:13:45.131Z,6.40
2018-08-09T01:16:13.807Z,8.33
2018-08-09T01:18:42.640Z,9.83
2018-08-09T01:21:11.221Z,8.93
2018-08-09T01:23:39.881Z,6.90
2018-08-09T01:26:08.549Z,7.17
2018-08-09T01:28:37.208Z,11.07
2018-08-09T01:31:05.923Z,9.13
2018-08-09T01:33:34.540Z,6.23
2018-08-09T01:36:03.271Z,7.00
2018-08-09T01:38:31.925Z,8.70
2018-08-09T01:41:00.963Z,8.23
2018-08-09T01:43:40.870Z,6.80
2018-08-09T01:46:09.622Z,10.47
2018-08-09T01:48:38.246Z,11.73
2018-08-09T01:51:06.978Z,12.33
2018-08-09T01:53:35.738Z,10.40
2018-08-09T01:56:04.462Z,10.20
2018-08-09T01:58:33.287Z,7.53
2018-08-09T02:01:01.999Z,9.23
2018-08-09T02:03:30.672Z,12.10
2018-08-09T02:05:59.427Z,7.80
2018-08-09T02:08:28.133Z,7.37
2018-08-09T02:10:56.841Z,9.23
2018-08-09T02:13:25.496Z,10.10
2018-08-09T02:15:54.131Z,9.60
2018-08-09T02:18:22.803Z,9.00
2018-08-09T02:20:51.429Z,9.33
2018-08-09T02:23:20.077Z,7.07
2018-08-09T02:25:48.886Z,11.07
2018-08-09T02:28:17.795Z,8.87
2018-08-09T02:30:46.604Z,7.87
2018-08-09T02:33:15.614Z,7.30
2018-08-09T02:35:44.660Z,7.13
2018-08-09T02:38:13.274Z,9.40
2018-08-09T02:40:42.147Z,7.90
2018-08-09T02:43:10.820Z,8.90
2018-08-09T02:45:39.504Z,9.20
2018-08-09T02:48:08.203Z,7.43
2018-08-09T02:50:36.885Z,8.60
2018-08-09T02:53:05.565Z,10.87
2018-08-09T02:55:34.278Z,9.07
2018-08-09T02:58:03.052Z,7.83
2018-08-09T03:00:31.727Z,8.30
2018-08-09T03:03:00.405Z,11.57
2018-08-09T03:05:29.063Z,8.57
2018-08-09T03:07:57.739Z,8.93
2018-08-09T03:10:26.477Z,8.37
2018-08-09T03:12:55.100Z,8.00
2018-08-09T03:15:23.779Z,8.77
2018-08-09T03:17:52.455Z,10.73
2018-08-09T03:20:21.130Z,7.30
2018-08-09T03:22:49.795Z,9.73
2018-08-09T03:25:18.584Z,8.50
2018-08-09T03:27:47.330Z,10.40
2018-08-09T03:30:16.056Z,7.37
2018-08-09T03:32:44.708Z,7.83
2018-08-09T03:35:13.343Z,7.77
2018-08-09T03:37:42.016Z,8.80
2018-08-09T03:40:10.690Z,7.77
2018-08-09T03:42:39.379Z,7.87
2018-08-09T03:45:08.043Z,9.30
2018-08-09T03:47:36.755Z,10.47
2018-08-09T03:50:05.422Z,9.00
2018-08-09T03:52:34.130Z,9.30
2018-08-09T03:55:03.022Z,8.40
2018-08-09T03:57:31.680Z,8.17
2018-08-09T04:00:00.361Z,8.63
2018-08-09T04:02:29.159Z,8.17
2018-08-09T04:04:57.935Z,8.10
2018-08-09T04:07:26.654Z,11.37
2018-08-09T04:09:55.336Z,10.23
2018-08-09T04:12:23.964Z,9.67
2018-08-09T04:14:52.654Z,7.40
2018-08-09T04:17:22.257Z,8.40
2018-08-09T04:19:52.130Z,9.37
2018-08-09T04:22:22.111Z,8.30
2018-08-09T04:24:50.797Z,9.70
2018-08-09T04:27:19.427Z,7.50
2018-08-09T04:29:48.071Z,12.57
2018-08-09T04:32:16.909Z,8.97
2018-08-09T04:34:45.823Z,8.53
2018-08-09T04:37:14.520Z,11.27
2018-08-09T04:39:43.247Z,8.50
2018-08-09T04:42:11.913Z,9.80
2018-08-09T04:44:40.607Z,8.67
2018-08-09T04:47:10.009Z,12.67
2018-08-09T04:49:38.729Z,7.90
2018-08-09T04:52:07.559Z,10.53
2018-08-09T04:54:36.179Z,8.07
2018-08-09T04:57:05.219Z,7.90
2018-08-09T04:59:33.937Z,8.73
2018-08-09T05:02:02.686Z,7.53
2018-08-09T05:04:31.862Z,11.67
2018-08-09T05:07:00.511Z,11.77
2018-08-09T05:09:29.358Z,9.63
2018-08-09T05:11:58.190Z,10.33
2018-08-09T05:14:26.794Z,8.47
2018-08-09T05:16:56.454Z,8.47
2018-08-09T05:19:25.318Z,9.07
2018-08-09T05:21:53.919Z,8.90
2018-08-09T05:24:22.790Z,10.17
2018-08-09T05:26:51.415Z,9.33
2018-08-09T05:29:20.113Z,10.77
2018-08-09T05:31:48.767Z,8.07
2018-08-09T05:34:17.769Z,10.47
2018-08-09T05:36:46.653Z,8.67
2018-08-09T05:39:15.326Z,10.23
2018-08-09T05:41:47.062Z,12.40
2018-08-09T05:44:15.679Z,9.40
2018-08-09T05:46:44.947Z,9.33
2018-08-09T05:49:13.941Z,8.90
2018-08-09T05:51:42.567Z,9.77
2018-08-09T05:54:11.177Z,10.10
2018-08-09T05:56:40.044Z,9.40
2018-08-09T05:59:08.916Z,8.10
2018-08-09T06:01:37.775Z,12.00
2018-08-09T06:04:07.016Z,7.10
2018-08-09T06:06:35.700Z,9.10
2018-08-09T06:09:06.541Z,8.77
2018-08-09T06:11:35.587Z,7.47
2018-08-09T06:14:04.512Z,7.30
2018-08-09T06:16:33.481Z,9.73
2018-08-09T06:19:02.157Z,7.37
2018-08-09T06:21:31.175Z,6.50
2018-08-09T06:23:59.883Z,6.73
2018-08-09T06:26:29.296Z,10.47
2018-08-09T06:28:58.137Z,10.37
2018-08-09T06:31:26.903Z,10.50
2018-08-09T06:33:55.667Z,8.37
2018-08-09T06:36:24.877Z,11.03
2018-08-09T06:38:53.654Z,6.80
2018-08-09T06:41:22.383Z,7.73
2018-08-09T06:43:51.861Z,12.10
2018-08-09T06:46:21.098Z,6.07
2018-08-09T06:48:50.135Z,9.60
2018-08-09T06:51:27.181Z,8.07
2018-08-09T06:53:55.763Z,11.00
2018-08-09T06:56:24.744Z,8.17
2018-08-09T06:58:53.559Z,7.83
2018-08-09T07:01:26.676Z,10.33
2018-08-09T07:03:56.392Z,9.90
2018-08-09T07:06:40.151Z,7.80
2018-08-09T07:09:10.850Z,13.60
2018-08-09T07:11:39.811Z,6.57
2018-08-09T07:14:08.453Z,7.60
2018-08-09T07:16:37.863Z,9.53
2018-08-09T07:19:06.889Z,9.33
2018-08-09T07:21:35.575Z,12.83
2018-08-09T07:24:04.352Z,8.70
2018-08-09T07:26:33.198Z,7.83
2018-08-09T07:29:02.020Z,16.37
2018-08-09T07:31:31.194Z,13.63
2018-08-09T07:33:59.800Z,13.50
2018-08-09T07:36:28.665Z,8.77
2018-08-09T07:38:57.282Z,10.43
2018-08-09T07:41:26.198Z,13.73
2018-08-09T07:43:55.124Z,12.23
2018-08-09T07:46:25.555Z,14.97
2018-08-09T07:48:54.557Z,11.10
2018-08-09T07:51:23.283Z,7.97
2018-08-09T07:53:52.345Z,9.33
2018-08-09T07:56:21.971Z,11.27
2018-08-09T07:58:50.737Z,9.80
2018-08-09T08:01:20.063Z,9.40
2018-08-09T08:03:49.522Z,6.60
2018-08-09T08:06:18.328Z,7.87
2018-08-09T08:08:46.987Z,9.73
2018-08-09T08:11:15.970Z,7.07
2018-08-09T08:13:44.625Z,7.83
2018-08-09T08:16:22.264Z,6.70
2018-08-09T08:18:52.175Z,5.90
2018-08-09T08:21:33.059Z,9.77
2018-08-09T08:24:02.035Z,10.63
2018-08-09T08:26:31.126Z,5.70
2018-08-09T08:29:01.917Z,6.70
2018-08-09T08:31:31.810Z,4.93
2018-08-09T08:34:00.598Z,7.33
2018-08-09T08:36:29.362Z,8.23
2018-08-09T08:38:57.949Z,6.07
2018-08-09T08:41:26.974Z,6.93
2018-08-09T08:43:55.609Z,4.73
2018-08-09T08:46:27.060Z,7.00
2018-08-09T08:48:57.083Z,9.40
2018-08-09T08:51:25.799Z,7.10
2018-08-09T08:53:55.968Z,7.57
2018-08-09T08:56:25.676Z,6.20
2018-08-09T08:58:54.792Z,5.83
2018-08-09T09:01:23.410Z,5.87
2018-08-09T09:03:52.356Z,5.20
2018-08-09T09:06:21.061Z,8.87
2018-08-09T09:08:49.910Z,6.27
2018-08-09T09:11:18.542Z,6.33
2018-08-09T09:13:47.615Z,11.70
2018-08-09T09:16:16.191Z,8.03
2018-08-09T09:18:44.951Z,7.53
2018-08-09T09:21:13.791Z,5.53
2018-08-09T09:23:42.747Z,7.67
2018-08-09T09:26:12.289Z,5.17
2018-08-09T09:28:41.192Z,7.23
2018-08-09T09:31:10.061Z,6.80
2018-08-09T09:33:38.701Z,5.37
2018-08-09T09:36:07.445Z,5.17
2018-08-09T09:38:36.067Z,6.07
2018-08-09T09:41:05.689Z,5.83
2018-08-09T09:43:34.909Z,6.63
2018-08-09T09:46:03.886Z,5.33
2018-08-09T09:48:32.485Z,8.20
2018-08-09T09:51:01.063Z,4.93
2018-08-09T09:53:30.027Z,9.37
2018-08-09T09:55:58.792Z,7.27
2018-08-09T09:58:30.036Z,7.43
2018-08-09T10:01:04.397Z,5.43
2018-08-09T10:03:32.987Z,8.70
2018-08-09T10:06:01.802Z,5.70
2018-08-09T10:08:30.655Z,6.67
2018-08-09T10:10:59.562Z,10.17
2018-08-09T10:13:28.251Z,8.03
2018-08-09T10:15:57.166Z,7.27
2018-08-09T10:18:25.775Z,6.30
2018-08-09T10:20:54.729Z,4.57
2018-08-09T10:23:23.603Z,5.23
2018-08-09T10:25:53.019Z,5.07
2018-08-09T10:28:21.833Z,6.93
2018-08-09T10:30:50.666Z,4.20
2018-08-09T10:33:19.739Z,5.90
2018-08-09T10:35:49.500Z,5.93
2018-08-09T10:38:24.666Z,4.80
2018-08-09T10:40:53.379Z,9.73
2018-08-09T10:43:24.322Z,5.97
2018-08-09T10:45:53.023Z,3.67
2018-08-09T10:48:23.254Z,3.95
2018-08-09T10:50:52.210Z,4.72
2018-08-09T10:53:21.347Z,4.67
2018-08-09T10:55:49.943Z,4.72
2018-08-09T10:58:18.666Z,7.22
2018-08-09T11:00:47.366Z,6.85
2018-08-09T11:03:16.343Z,4.90
2018-08-09T11:05:45.916Z,4.33
2018-08-09T11:08:14.591Z,4.20
2018-08-09T11:10:45.249Z,4.40
2018-08-09T11:13:14.084Z,4.57
2018-08-09T11:15:42.668Z,4.57
2018-08-09T11:18:11.314Z,4.27
2018-08-09T11:20:40.419Z,6.50
2018-08-09T11:23:09.007Z,5.23
2018-08-09T11:25:37.660Z,4.20
2018-08-09T11:28:06.722Z,4.60
2018-08-09T11:30:46.439Z,3.83
2018-08-09T11:33:15.087Z,7.47
2018-08-09T11:35:50.904Z,7.93
2018-08-09T11:38:19.561Z,4.17
2018-08-09T11:40:48.161Z,4.53
2018-08-09T11:43:16.833Z,6.30
2018-08-09T11:45:45.575Z,5.67
2018-08-09T11:48:14.734Z,4.87
2018-08-09T11:50:43.884Z,5.07
2018-08-09T11:53:12.773Z,7.73
2018-08-09T11:55:41.472Z,4.30
2018-08-09T11:58:10.067Z,8.20
2018-08-09T12:00:38.795Z,4.27
2018-08-09T12:03:07.430Z,5.07
2018-08-09T12:05:36.197Z,5.23
2018-08-09T12:08:05.075Z,7.40
2018-08-09T12:10:34.135Z,15.73
2018-08-09T12:13:02.875Z,15.20
2018-08-09T12:15:31.513Z,17.90
2018-08-09T12:18:00.166Z,7.87
2018-08-09T12:20:36.256Z,8.70
2018-08-09T12:23:04.913Z,9.67
2018-08-09T12:25:33.598Z,7.47
2018-08-09T12:28:02.282Z,7.93
2018-08-09T12:30:30.947Z,8.87
2018-08-09T12:32:59.681Z,12.43
2018-08-09T12:35:28.392Z,10.43
2018-08-09T12:37:57.112Z,20.67
2018-08-09T12:40:25.870Z,28.70
2018-08-09T12:42:57.747Z,27.63
2018-08-09T12:45:27.007Z,18.93
2018-08-09T12:47:55.641Z,18.30
2018-08-09T12:50:24.301Z,22.17
2018-08-09T12:52:53.103Z,21.20
2018-08-09T12:55:21.799Z,14.40
2018-08-09T12:58:00.393Z,12.43
2018-08-09T13:00:29.057Z,16.17
2018-08-09T13:02:57.747Z,19.87
2018-08-09T13:05:26.477Z,17.73
2018-08-09T13:07:55.212Z,27.30
2018-08-09T13:10:23.942Z,14.47
2018-08-09T13:12:52.642Z,9.50
2018-08-09T13:15:21.321Z,11.20
2018-08-09T13:17:50.002Z,10.53
2018-08-09T13:20:20.417Z,8.57
2018-08-09T13:22:55.011Z,9.13
2018-08-09T13:25:25.837Z,11.23
2018-08-09T13:27:54.856Z,11.13
2018-08-09T13:30:24.013Z,6.90
2018-08-09T13:32:52.860Z,8.17
2018-08-09T13:35:22.240Z,11.03
2018-08-09T13:37:50.945Z,10.37
2018-08-09T13:40:20.154Z,9.57
2018-08-09T13:42:50.465Z,9.27
2018-08-09T13:45:19.112Z,10.67
2018-08-09T13:47:47.831Z,9.33
2018-08-09T13:50:16.554Z,5.07
2018-08-09T13:52:45.578Z,7.77
2018-08-09T13:55:15.190Z,9.37
2018-08-09T13:57:44.162Z,8.27
2018-08-09T14:00:14.293Z,8.47
2018-08-09T14:02:44.651Z,7.40
2018-08-09T14:05:13.313Z,9.40
2018-08-09T14:07:43.553Z,13.33
2018-08-09T14:10:13.146Z,10.17
2018-08-09T14:12:42.816Z,11.70
2018-08-09T14:15:13.256Z,16.77
2018-08-09T14:17:42.094Z,6.60
2018-08-09T14:20:14.666Z,7.57
2018-08-09T14:22:43.483Z,5.53
2018-08-09T14:25:12.885Z,12.50
2018-08-09T14:27:41.499Z,8.13
2018-08-09T14:30:12.238Z,11.97
2018-08-09T14:32:40.902Z,9.53
2018-08-09T14:35:12.472Z,8.00
2018-08-09T14:37:41.940Z,8.47
2018-08-09T14:40:11.538Z,6.50
2018-08-09T14:42:40.766Z,9.70
2018-08-09T14:45:13.879Z,5.50
2018-08-09T14:47:42.997Z,4.73
2018-08-09T14:50:11.679Z,4.30
2018-08-09T14:52:40.664Z,5.87
2018-08-09T14:55:11.245Z,8.37
2018-08-09T14:57:40.683Z,4.30
2018-08-09T15:00:18.786Z,4.73
2018-08-09T15:02:48.194Z,2.97
2018-08-09T15:05:18.127Z,5.07
2018-08-09T15:07:46.760Z,6.67
2018-08-09T15:10:16.565Z,5.13
2018-08-09T15:12:45.182Z,3.20
2018-08-09T15:15:13.810Z,4.43
2018-08-09T15:17:42.663Z,7.53
2018-08-09T15:20:13.202Z,10.47
2018-08-09T15:22:43.214Z,7.83
2018-08-09T15:25:12.371Z,6.27
2018-08-09T15:27:41.316Z,4.83
2018-08-09T15:30:17.468Z,7.80
2018-08-09T15:32:46.661Z,4.93
2018-08-09T15:35:15.478Z,2.77
2018-08-09T15:37:44.331Z,3.10
2018-08-09T15:40:14.071Z,5.13
2018-08-09T15:42:42.741Z,6.43
2018-08-09T15:45:14.425Z,5.43
2018-08-09T15:47:43.600Z,4.17
2018-08-09T15:50:14.710Z,2.43
2018-08-09T15:52:43.537Z,4.47
2018-08-09T15:55:13.071Z,2.90
2018-08-09T15:57:41.790Z,2.87
2018-08-09T16:00:21.332Z,7.27
2018-08-09T16:02:50.089Z,3.53
2018-08-09T16:05:21.630Z,2.67
2018-08-09T16:07:50.523Z,5.53
2018-08-09T16:10:19.759Z,5.63
2018-08-09T16:12:49.271Z,4.13
2018-08-09T16:15:19.153Z,5.20
2018-08-09T16:17:49.562Z,4.47
2018-08-09T16:20:19.169Z,5.90
2018-08-09T16:22:48.323Z,7.23
2018-08-09T16:25:19.127Z,3.77
2018-08-09T16:27:49.240Z,2.63
2018-08-09T16:30:22.321Z,3.77
2018-08-09T16:32:51.210Z,7.73
2018-08-09T16:35:20.287Z,8.90
2018-08-09T16:37:49.179Z,2.77
2018-08-09T16:40:20.401Z,18.67
2018-08-09T16:42:49.411Z,3.60
2018-08-09T16:45:19.146Z,2.57
2018-08-09T16:47:48.415Z,5.23
2018-08-09T16:50:19.406Z,5.07
2018-08-09T16:52:49.310Z,9.93
2018-08-09T16:55:19.288Z,5.20
2018-08-09T16:57:48.015Z,7.33
2018-08-09T17:00:18.639Z,4.40
2018-08-09T17:02:47.627Z,4.63
2018-08-09T17:05:19.338Z,4.47
2018-08-09T17:07:48.602Z,4.57
2018-08-09T17:10:19.996Z,4.33
2018-08-09T17:12:51.243Z,7.67
2018-08-09T17:15:22.085Z,5.37
2018-08-09T17:17:52.718Z,6.73
2018-08-09T17:20:23.969Z,8.27
2018-08-09T17:22:52.716Z,5.57
2018-08-09T17:25:21.442Z,5.03
2018-08-09T17:27:50.650Z,5.40
2018-08-09T17:30:21.147Z,8.23
2018-08-09T17:32:50.215Z,4.80
2018-08-09T17:35:19.303Z,3.50
2018-08-09T17:37:48.331Z,3.90
2018-08-09T17:40:20.886Z,4.30
2018-08-09T17:42:50.899Z,3.10
2018-08-09T17:45:21.463Z,4.20
2018-08-09T17:47:50.148Z,2.33
2018-08-09T17:50:18.823Z,3.67
2018-08-09T17:52:47.731Z,2.03
2018-08-09T17:55:17.303Z,4.00
2018-08-09T17:57:46.930Z,5.70
2018-08-09T18:03:13.315Z,1.80
2018-08-09T18:05:42.379Z,3.43
2018-08-09T18:08:11.274Z,4.97
2018-08-09T18:10:52.141Z,2.33
2018-08-09T18:13:20.765Z,6.27
2018-08-09T18:15:49.925Z,2.37
2018-08-09T18:18:18.762Z,2.80
2018-08-09T18:20:47.938Z,1.83
2018-08-09T18:23:16.681Z,1.80
2018-08-09T18:25:45.559Z,3.40
2018-08-09T18:28:14.469Z,2.93
2018-08-09T18:30:43.377Z,2.30
2018-08-09T18:33:12.051Z,5.07
2018-08-09T18:35:40.761Z,2.83
2018-08-09T18:38:10.402Z,1.70
2018-08-09T18:40:41.140Z,3.63
2018-08-09T18:43:09.897Z,3.13
2018-08-09T18:45:40.176Z,5.37
2018-08-09T18:48:09.823Z,1.90
2018-08-09T18:50:38.835Z,3.70
2018-08-09T18:53:09.226Z,3.10
2018-08-09T18:55:37.908Z,3.57
2018-08-09T18:58:09.179Z,1.60
2018-08-09T19:00:39.314Z,2.20
2018-08-09T19:03:10.774Z,2.43
2018-08-09T19:05:41.022Z,2.77
2018-08-09T19:08:11.359Z,1.97
2018-08-09T19:10:40.207Z,3.13
2018-08-09T19:13:10.998Z,1.87
2018-08-09T19:15:39.748Z,3.33
2018-08-09T19:18:10.056Z,1.93
2018-08-09T19:20:38.850Z,4.70
2018-08-09T19:23:09.549Z,2.60
2018-08-09T19:25:39.578Z,3.00
2018-08-09T19:28:09.622Z,4.93
2018-08-09T19:30:38.304Z,3.13
2018-08-09T19:33:08.590Z,1.43
2018-08-09T19:35:39.957Z,1.83
2018-08-09T19:38:09.886Z,1.70
2018-08-09T19:40:38.761Z,1.83
2018-08-09T19:43:08.493Z,4.63
2018-08-09T19:45:38.503Z,1.73
2018-08-09T19:48:08.835Z,1.60
2018-08-09T19:51:15.934Z,1.53
2018-08-09T19:53:44.686Z,1.87
2018-08-09T19:56:15.421Z,1.50
2018-08-09T19:58:46.653Z,1.93
2018-08-09T20:01:15.327Z,3.70
2018-08-09T20:03:46.101Z,3.20
2018-08-09T20:06:15.962Z,1.30
2018-08-09T20:08:45.303Z,4.63
2018-08-09T20:11:16.460Z,4.03
2018-08-09T20:13:46.601Z,0.90
2018-08-09T20:16:15.394Z,1.30
2018-08-09T20:18:44.051Z,1.77
2018-08-09T20:21:14.304Z,1.13
2018-08-09T20:23:44.928Z,1.17
2018-08-09T20:26:15.585Z,1.00
2018-08-09T20:28:46.355Z,1.60
2018-08-09T20:31:16.420Z,2.30
2018-08-09T20:33:46.191Z,0.90
2018-08-09T20:36:15.591Z,3.27
2018-08-09T20:38:45.031Z,2.67
2018-08-09T20:41:13.995Z,2.00
2018-08-09T20:43:43.855Z,1.00
2018-08-09T20:46:13.267Z,1.63
2018-08-09T20:48:42.310Z,2.10
2018-08-09T20:51:11.527Z,1.83
2018-08-09T20:53:40.791Z,1.03
2018-08-09T20:56:09.853Z,2.03
2018-08-09T20:58:39.863Z,1.20
2018-08-09T21:01:08.766Z,1.20
2018-08-09T21:03:39.022Z,1.37
2018-08-09T21:06:10.139Z,5.50
2018-08-09T21:08:38.959Z,2.17
2018-08-09T21:11:07.602Z,1.53
2018-08-09T21:13:36.381Z,1.20
2018-08-09T21:16:05.243Z,1.23
2018-08-09T21:18:38.027Z,1.00
2018-08-09T21:21:06.921Z,1.30
2018-08-09T21:23:35.583Z,0.93
2018-08-09T21:26:04.356Z,1.37
2018-08-09T21:28:33.609Z,4.73
2018-08-09T21:31:02.492Z,1.33
2018-08-09T21:33:32.333Z,2.03
2018-08-09T21:36:01.181Z,1.13
2018-08-09T21:38:29.975Z,2.17
2018-08-09T21:40:58.896Z,0.93
2018-08-09T21:43:28.250Z,0.90
2018-08-09T21:46:00.561Z,1.47
2018-08-09T21:48:29.578Z,1.37
2018-08-09T21:50:59.514Z,1.93
2018-08-09T21:53:28.662Z,6.27
2018-08-09T21:55:57.882Z,2.00
2018-08-09T21:58:26.501Z,1.63
2018-08-09T22:01:00.050Z,1.30
2018-08-09T22:03:31.394Z,1.27
2018-08-09T22:06:05.550Z,2.10
2018-08-09T22:08:39.572Z,1.40
2018-08-09T22:11:14.992Z,1.07
2018-08-09T22:13:48.959Z,1.17
2018-08-09T22:16:22.831Z,2.83
2018-08-09T22:18:56.957Z,2.70
2018-08-09T22:21:31.018Z,0.90
2018-08-09T22:23:59.794Z,2.77
2018-08-09T22:26:29.475Z,3.17
2018-08-09T22:28:58.324Z,2.43
2018-08-09T22:31:27.705Z,2.80
2018-08-09T22:33:56.947Z,0.93
2018-08-09T22:36:25.971Z,1.27
2018-08-09T22:38:54.721Z,1.00
2018-08-09T22:41:23.586Z,3.47
2018-08-09T22:43:52.493Z,0.90
2018-08-09T22:46:21.249Z,0.90
2018-08-09T22:48:49.885Z,1.00
2018-08-09T22:51:18.787Z,0.90
2018-08-09T22:53:47.648Z,1.00
2018-08-09T22:56:16.429Z,0.77
2018-08-09T22:58:45.174Z,0.90
2018-08-09T23:01:13.900Z,0.90
2018-08-09T23:03:42.905Z,1.03
2018-08-09T23:06:11.711Z,1.00
2018-08-09T23:08:40.478Z,2.10
2018-08-09T23:11:09.285Z,0.80
2018-08-09T23:13:38.053Z,1.50
2018-08-09T23:16:06.942Z,0.97
2018-08-09T23:18:35.611Z,1.43
2018-08-09T23:21:04.318Z,1.00
2018-08-09T23:23:33.163Z,1.13
2018-08-09T23:26:02.123Z,0.87
2018-08-09T23:28:31.343Z,0.70
2018-08-09T23:31:00.171Z,4.57
2018-08-09T23:33:29.167Z,0.70
2018-08-09T23:35:57.805Z,1.10
2018-08-09T23:38:26.789Z,0.87
2018-08-09T23:40:55.420Z,0.83
2018-08-09T23:43:24.559Z,0.90
2018-08-09T23:45:53.409Z,2.13
2018-08-09T23:48:22.234Z,0.80
2018-08-09T23:50:51.096Z,0.67
2018-08-09T23:53:19.990Z,0.50
2018-08-09T23:55:48.764Z,0.60
2018-08-09T23:58:17.856Z,0.60
